Time;durP1;ratioP1;P1;durP2;ratioP2;P2;SDS_P1;SDS_P2;PMS_P1;PMS_P2;Temp;Humidity;BMP_temperature;BMP_pressure;BME280_temperature;BME280_humidity;BME280_pressure;Samples;Min_cycle;Max_cycle;Signal;HPM_P1;HPM_P2
2022/01/01 00:01:55;;;;;;;;;;;;;;;10.05;100.00;101681.94;5021000;28;19955;-72
2022/01/01 00:04:20;;;;;;;;;;;;;;;9.98;100.00;101686.81;5018310;28;19917;-72
2022/01/01 00:06:46;;;;;;;;;;;;;;;9.93;100.00;101675.88;5021868;28;19939;-72
2022/01/01 00:09:11;;;;;;;;;;;;;;;9.94;100.00;101696.75;5003050;28;20032;-72
2022/01/01 00:11:37;;;;;;;;;;;;;;;9.89;100.00;101691.00;5009860;28;19917;-72
2022/01/01 00:14:02;;;;;;;;;;;;;;;9.84;100.00;101701.00;5024170;28;19917;-72
2022/01/01 00:16:28;;;;;;;;;;;;;;;9.86;100.00;101714.00;4994397;28;19955;-72
2022/01/01 00:18:54;;;;;;;;;;;;;;;9.91;100.00;101720.56;5008076;28;20000;-73
2022/01/01 00:21:19;;;;;;;;;;;;;;;10.04;100.00;101724.81;5002050;28;19921;-73
2022/01/01 00:23:45;;;;;;;;;;;;;;;9.98;100.00;101723.50;5025532;28;19923;-73
2022/01/01 00:26:10;;;;;;;;;;;;;;;10.00;100.00;101721.63;5002945;28;19931;-72
2022/01/01 00:28:35;;;;;;;;;;;;;;;9.93;100.00;101730.91;5002878;28;19921;-72
2022/01/01 00:31:01;;;;;;;;;;;;;;;9.93;100.00;101737.00;4982234;28;20016;-72
2022/01/01 00:33:29;;;;;;;;;;;;;;;9.94;100.00;101733.44;5017763;28;20317;-73
2022/01/01 00:35:55;;;;;;;;;;;;;;;10.03;100.00;101733.66;5030841;28;19958;-72
2022/01/01 00:38:20;;;;;;;;;;;;;;;10.01;100.00;101732.94;4992383;28;20000;-72
2022/01/01 00:40:45;;;;;;;;;;;;;;;10.01;100.00;101735.56;4993566;28;19923;-73
2022/01/01 00:43:11;;;;;;;;;;;;;;;9.99;100.00;101738.31;5003255;28;19917;-72
2022/01/01 00:45:36;;;;;;;;;;;;;;;9.95;100.00;101734.25;5020724;28;20003;-71
2022/01/01 00:48:02;;;;;;;;;;;;;;;9.92;100.00;101735.31;4998063;28;19928;-71
2022/01/01 00:50:27;;;;;;;;;;;;;;;9.93;100.00;101737.00;5030466;28;19920;-71
2022/01/01 00:52:53;;;;;;;;;;;;;;;9.88;100.00;101740.91;5009341;28;20294;-71
2022/01/01 00:55:19;;;;;;;;;;;;;;;9.79;100.00;101746.84;4995125;28;20037;-71
2022/01/01 00:57:47;;;;;;;;;;;;;;;9.82;100.00;101746.63;5000865;28;19928;-71
2022/01/01 01:00:12;;;;;;;;;;;;;;;9.83;100.00;101749.13;4980235;28;20449;-72
2022/01/01 01:02:38;;;;;;;;;;;;;;;9.85;100.00;101749.84;5004495;28;19913;-71
2022/01/01 01:05:04;;;;;;;;;;;;;;;9.82;100.00;101747.47;5026609;28;20011;-70
2022/01/01 01:07:30;;;;;;;;;;;;;;;9.83;100.00;101738.66;5014483;28;19921;-71
2022/01/01 01:09:55;;;;;;;;;;;;;;;9.79;100.00;101749.47;4973097;28;19917;-70
2022/01/01 01:12:25;;;;;;;;;;;;;;;9.78;100.00;101743.41;4986194;28;19994;-70
2022/01/01 01:14:52;;;;;;;;;;;;;;;9.88;100.00;101744.34;4983613;28;19917;-71
2022/01/01 01:17:18;;;;;;;;;;;;;;;9.85;100.00;101746.38;5002503;28;19924;-70
2022/01/01 01:19:46;;;;;;;;;;;;;;;9.84;100.00;101749.97;5013428;28;19973;-70
2022/01/01 01:22:11;;;;;;;;;;;;;;;9.81;100.00;101750.19;5008435;28;20488;-71
2022/01/01 01:24:39;;;;;;;;;;;;;;;9.91;100.00;101754.63;4989055;28;19917;-70
2022/01/01 01:27:06;;;;;;;;;;;;;;;9.83;100.00;101756.16;4975038;28;19924;-70
2022/01/01 01:29:33;;;;;;;;;;;;;;;9.83;100.00;101761.38;5002333;28;19966;-71
2022/01/01 01:31:59;;;;;;;;;;;;;;;9.79;100.00;101759.94;4995360;28;20131;-71
2022/01/01 01:34:24;;;;;;;;;;;;;;;9.81;100.00;101764.13;5012771;28;19929;-72
2022/01/01 01:36:50;;;;;;;;;;;;;;;9.80;100.00;101764.25;5013242;28;19970;-71
2022/01/01 01:39:16;;;;;;;;;;;;;;;9.89;100.00;101758.31;5005628;28;20039;-70
2022/01/01 01:41:44;;;;;;;;;;;;;;;9.80;100.00;101759.84;5005139;28;19917;-71
2022/01/01 01:44:26;;;;;;;;;;;;;;;9.78;100.00;101767.00;4987858;28;19921;-71
2022/01/01 01:46:52;;;;;;;;;;;;;;;9.70;100.00;101764.94;4999251;28;19928;-72
2022/01/01 01:49:18;;;;;;;;;;;;;;;9.83;100.00;101758.75;4990208;28;19925;-71
2022/01/01 01:51:44;;;;;;;;;;;;;;;9.82;100.00;101752.69;4990446;28;19923;-71
2022/01/01 01:54:11;;;;;;;;;;;;;;;9.84;100.00;101750.78;5005750;28;19921;-71
2022/01/01 01:56:37;;;;;;;;;;;;;;;9.93;100.00;101762.38;5010631;28;19916;-73
2022/01/01 01:59:03;;;;;;;;;;;;;;;9.90;100.00;101765.22;5008424;28;19917;-71
2022/01/01 02:01:29;;;;;;;;;;;;;;;9.86;100.00;101758.53;4982153;28;19916;-72
2022/01/01 02:03:58;;;;;;;;;;;;;;;9.92;100.00;101753.66;4996684;28;19925;-71
2022/01/01 02:06:24;;;;;;;;;;;;;;;9.90;100.00;101758.19;5002228;28;20404;-71
2022/01/01 02:08:52;;;;;;;;;;;;;;;9.98;100.00;101748.91;4998401;28;19923;-72
2022/01/01 02:11:19;;;;;;;;;;;;;;;10.05;100.00;101750.94;5003384;28;19917;-72
2022/01/01 02:18:48;;;;;;;;;;;;;;;10.10;100.00;101755.84;4996282;28;20009;-72
2022/01/01 02:21:14;;;;;;;;;;;;;;;10.10;100.00;101758.44;4992595;28;19917;-72
2022/01/01 02:23:46;;;;;;;;;;;;;;;10.07;100.00;101753.44;5001576;28;19921;-72
2022/01/01 02:26:15;;;;;;;;;;;;;;;10.09;100.00;101762.84;4989627;28;19933;-72
2022/01/01 02:28:44;;;;;;;;;;;;;;;10.03;100.00;101776.44;5006800;28;19928;-72
2022/01/01 02:31:11;;;;;;;;;;;;;;;10.06;100.00;101783.25;4996727;28;20015;-72
2022/01/01 02:33:39;;;;;;;;;;;;;;;10.07;100.00;101803.25;4973694;28;19923;-72
2022/01/01 02:36:29;;;;;;;;;;;;;;;10.12;100.00;101806.34;5006141;28;20354;-71
2022/01/01 02:38:55;;;;;;;;;;;;;;;10.12;100.00;101814.22;4996508;28;19924;-72
2022/01/01 02:41:20;;;;;;;;;;;;;;;10.04;100.00;101821.81;4980014;28;20627;-72
2022/01/01 02:43:46;;;;;;;;;;;;;;;9.98;100.00;101806.56;4988532;28;20436;-72
2022/01/01 02:46:12;;;;;;;;;;;;;;;10.01;100.00;101803.72;5019691;28;20439;-73
2022/01/01 02:48:37;;;;;;;;;;;;;;;10.09;100.00;101796.09;4977159;28;19921;-72
2022/01/01 02:51:05;;;;;;;;;;;;;;;10.18;100.00;101805.88;5023136;28;20298;-72
2022/01/01 02:53:30;;;;;;;;;;;;;;;10.24;100.00;101810.63;5012572;28;19917;-72
2022/01/01 02:55:56;;;;;;;;;;;;;;;10.19;100.00;101811.94;5015063;28;19924;-72
2022/01/01 02:58:22;;;;;;;;;;;;;;;10.11;100.00;101813.41;4993718;28;19916;-72
2022/01/01 03:00:47;;;;;;;;;;;;;;;10.16;100.00;101806.97;5001957;28;19924;-72
2022/01/01 03:03:13;;;;;;;;;;;;;;;10.22;100.00;101824.84;4993094;28;19916;-71
2022/01/01 03:05:39;;;;;;;;;;;;;;;10.23;100.00;101810.78;4993973;28;20068;-72
2022/01/01 03:08:08;;;;;;;;;;;;;;;10.25;100.00;101796.59;4986630;28;19916;-71
2022/01/01 03:10:34;;;;;;;;;;;;;;;10.18;100.00;101805.88;5020820;28;20020;-72
2022/01/01 03:12:59;;;;;;;;;;;;;;;10.12;100.00;101808.97;5002710;28;20071;-72
2022/01/01 03:15:25;;;;;;;;;;;;;;;10.09;100.00;101803.97;4982678;28;19937;-72
2022/01/01 03:17:51;;;;;;;;;;;;;;;10.12;100.00;101801.94;5001615;28;19974;-71
2022/01/01 03:20:17;;;;;;;;;;;;;;;10.21;100.00;101802.16;5016850;28;19917;-72
2022/01/01 03:22:43;;;;;;;;;;;;;;;10.17;100.00;101806.00;5019638;28;20727;-71
2022/01/01 03:25:08;;;;;;;;;;;;;;;10.07;100.00;101809.31;5008097;28;20409;-72
2022/01/01 03:27:34;;;;;;;;;;;;;;;10.01;100.00;101799.31;5010087;28;20350;-71
2022/01/01 03:30:00;;;;;;;;;;;;;;;9.96;100.00;101813.72;4998141;28;19963;-70
2022/01/01 03:32:26;;;;;;;;;;;;;;;10.03;100.00;101828.03;5000947;28;19962;-70
2022/01/01 03:34:52;;;;;;;;;;;;;;;10.01;100.00;101828.13;4986971;28;19921;-71
2022/01/01 03:37:18;;;;;;;;;;;;;;;10.04;100.00;101835.78;4993302;28;19987;-72
2022/01/01 03:39:44;;;;;;;;;;;;;;;10.04;100.00;101845.41;5010090;28;20358;-71
2022/01/01 03:42:10;;;;;;;;;;;;;;;10.15;100.00;101837.56;4999241;28;19921;-71
2022/01/01 03:44:36;;;;;;;;;;;;;;;10.12;100.00;101828.16;4995420;28;19917;-71
2022/01/01 03:47:09;;;;;;;;;;;;;;;10.18;100.00;101829.47;5009527;28;19939;-71
2022/01/01 03:49:39;;;;;;;;;;;;;;;10.07;100.00;101826.84;5011547;28;19952;-71
2022/01/01 03:52:05;;;;;;;;;;;;;;;10.16;100.00;101827.94;4995475;28;19916;-72
2022/01/01 03:54:32;;;;;;;;;;;;;;;10.18;100.00;101833.88;5006057;28;20478;-72
2022/01/01 03:56:58;;;;;;;;;;;;;;;10.18;100.00;101839.97;4987764;28;20439;-72
2022/01/01 03:59:25;;;;;;;;;;;;;;;10.20;100.00;101830.19;4997282;28;19980;-71
2022/01/01 04:01:56;;;;;;;;;;;;;;;10.23;100.00;101829.13;4991520;28;19924;-72
2022/01/01 04:04:25;;;;;;;;;;;;;;;10.23;100.00;101835.22;5016694;28;19918;-72
2022/01/01 04:06:51;;;;;;;;;;;;;;;10.25;100.00;101833.31;4991686;28;20380;-74
2022/01/01 04:09:18;;;;;;;;;;;;;;;10.23;100.00;101835.22;4997905;28;20012;-74
2022/01/01 04:11:44;;;;;;;;;;;;;;;10.20;100.00;101834.59;5021504;28;19917;-72
2022/01/01 04:14:12;;;;;;;;;;;;;;;10.22;100.00;101843.19;5006629;28;19928;-72
2022/01/01 04:16:39;;;;;;;;;;;;;;;10.12;100.00;101838.63;4984470;28;19935;-72
2022/01/01 04:19:05;;;;;;;;;;;;;;;10.07;100.00;101834.69;4991143;28;19918;-73
2022/01/01 04:21:30;;;;;;;;;;;;;;;10.09;100.00;101836.25;5016754;28;19917;-73
2022/01/01 04:23:56;;;;;;;;;;;;;;;10.10;100.00;101839.72;5039533;28;20364;-73
2022/01/01 04:26:21;;;;;;;;;;;;;;;10.18;100.00;101844.38;5016149;28;19918;-73
2022/01/01 04:28:47;;;;;;;;;;;;;;;10.29;100.00;101857.50;5004965;28;19920;-73
2022/01/01 04:31:15;;;;;;;;;;;;;;;10.24;100.00;101863.09;5000325;28;19920;-73
2022/01/01 04:33:41;;;;;;;;;;;;;;;10.21;100.00;101865.09;5017582;28;19917;-73
2022/01/01 04:36:06;;;;;;;;;;;;;;;10.14;100.00;101865.56;4990739;28;19967;-72
2022/01/01 04:38:36;;;;;;;;;;;;;;;10.13;100.00;101877.03;5025425;28;19945;-73
2022/01/01 04:41:07;;;;;;;;;;;;;;;10.17;100.00;101866.28;5013456;28;19917;-71
2022/01/01 04:43:32;;;;;;;;;;;;;;;10.13;100.00;101878.78;5013915;28;19917;-72
2022/01/01 04:45:58;;;;;;;;;;;;;;;10.07;100.00;101882.72;4988446;28;19921;-74
2022/01/01 04:48:23;;;;;;;;;;;;;;;10.21;100.00;101870.34;4986941;28;19988;-74
2022/01/01 04:50:49;;;;;;;;;;;;;;;10.23;100.00;101869.28;5014536;28;19928;-72
2022/01/01 04:53:17;;;;;;;;;;;;;;;10.13;100.00;101874.41;5021932;28;19917;-74
2022/01/01 04:55:43;;;;;;;;;;;;;;;10.20;100.00;101866.91;5029107;28;20441;-72
2022/01/01 04:58:09;;;;;;;;;;;;;;;10.17;100.00;101869.78;5017417;28;19964;-74
2022/01/01 05:00:34;;;;;;;;;;;;;;;10.13;100.00;101873.56;5015806;28;20004;-74
2022/01/01 05:03:00;;;;;;;;;;;;;;;10.13;100.00;101881.41;5035949;28;19951;-73
2022/01/01 05:05:25;;;;;;;;;;;;;;;10.17;100.00;101884.66;5020204;28;19956;-73
2022/01/01 05:07:51;;;;;;;;;;;;;;;10.13;100.00;101889.28;5016804;28;19917;-73
2022/01/01 05:10:16;;;;;;;;;;;;;;;10.18;100.00;101891.56;5010584;28;19968;-73
2022/01/01 05:12:42;;;;;;;;;;;;;;;10.11;100.00;101901.66;5010780;28;19923;-73
2022/01/01 05:15:08;;;;;;;;;;;;;;;10.11;100.00;101905.16;5013899;28;20023;-73
2022/01/01 05:17:34;;;;;;;;;;;;;;;10.12;100.00;101903.34;4996041;28;20430;-72
2022/01/01 05:19:59;;;;;;;;;;;;;;;10.06;100.00;101912.50;5000335;28;19927;-73
2022/01/01 05:22:25;;;;;;;;;;;;;;;10.09;100.00;101899.16;5006149;28;20354;-73
2022/01/01 05:24:51;;;;;;;;;;;;;;;10.10;100.00;101900.84;5017497;28;19971;-73
2022/01/01 05:27:16;;;;;;;;;;;;;;;10.21;100.00;101904.44;5015592;28;19917;-73
2022/01/01 05:29:41;;;;;;;;;;;;;;;10.05;100.00;101904.75;4984849;28;19921;-73
2022/01/01 05:32:07;;;;;;;;;;;;;;;10.02;100.00;101908.47;5016453;28;19924;-73
2022/01/01 05:34:33;;;;;;;;;;;;;;;10.07;100.00;101915.97;5021219;28;19917;-73
2022/01/01 05:36:58;;;;;;;;;;;;;;;10.06;100.00;101917.75;5014102;28;20028;-72
2022/01/01 05:39:23;;;;;;;;;;;;;;;10.14;100.00;101925.88;5007093;28;19917;-72
2022/01/01 05:41:54;;;;;;;;;;;;;;;10.12;100.00;101925.16;4978600;28;19921;-72
2022/01/01 05:44:20;;;;;;;;;;;;;;;10.04;100.00;101924.03;5028749;28;20306;-70
2022/01/01 05:46:45;;;;;;;;;;;;;;;10.16;100.00;101938.06;5020615;28;19916;-72
2022/01/01 05:49:11;;;;;;;;;;;;;;;10.18;100.00;101933.53;5017440;28;19950;-73
2022/01/01 05:51:37;;;;;;;;;;;;;;;10.17;100.00;101934.47;5013889;28;19921;-72
2022/01/01 05:54:02;;;;;;;;;;;;;;;10.17;100.00;101929.22;5003771;28;19917;-72
2022/01/01 05:56:28;;;;;;;;;;;;;;;10.21;100.00;101928.88;5028336;28;20011;-71
2022/01/01 05:58:56;;;;;;;;;;;;;;;10.23;100.00;101936.66;4981965;28;20188;-72
2022/01/01 06:01:21;;;;;;;;;;;;;;;10.16;100.00;101933.63;5010902;28;20027;-73
2022/01/01 06:03:47;;;;;;;;;;;;;;;10.20;100.00;101932.44;5012384;28;20032;-73
2022/01/01 06:06:12;;;;;;;;;;;;;;;10.28;100.00;101939.72;5016988;28;20020;-72
2022/01/01 06:08:38;;;;;;;;;;;;;;;10.25;100.00;101932.94;5005611;28;19931;-72
2022/01/01 06:11:03;;;;;;;;;;;;;;;10.23;100.00;101939.25;5015651;28;19918;-73
2022/01/01 06:13:29;;;;;;;;;;;;;;;10.29;100.00;101938.78;5007788;28;20477;-71
2022/01/01 06:15:55;;;;;;;;;;;;;;;10.22;100.00;101937.59;5001554;28;19913;-72
2022/01/01 06:18:20;;;;;;;;;;;;;;;10.24;100.00;101938.31;5001304;28;19944;-72
2022/01/01 06:20:46;;;;;;;;;;;;;;;10.24;100.00;101944.38;5011241;28;19920;-73
2022/01/01 06:23:12;;;;;;;;;;;;;;;10.26;100.00;101950.34;5039758;28;19917;-73
2022/01/01 06:25:37;;;;;;;;;;;;;;;10.28;100.00;101947.59;5014426;28;19913;-73
2022/01/01 06:28:03;;;;;;;;;;;;;;;10.27;100.00;101951.19;5021348;28;20016;-73
2022/01/01 06:30:33;;;;;;;;;;;;;;;10.24;100.00;101947.00;5001922;28;19918;-73
2022/01/01 06:33:00;;;;;;;;;;;;;;;10.26;100.00;101954.75;4999927;28;19921;-73
2022/01/01 06:35:26;;;;;;;;;;;;;;;10.20;100.00;101965.69;5018331;28;19967;-72
2022/01/01 06:37:51;;;;;;;;;;;;;;;10.15;100.00;101963.41;5009441;28;19948;-73
2022/01/01 06:40:17;;;;;;;;;;;;;;;10.25;100.00;101971.44;5026395;28;20359;-74
2022/01/01 06:42:42;;;;;;;;;;;;;;;10.28;100.00;101969.44;5029529;28;19917;-70
2022/01/01 06:45:08;;;;;;;;;;;;;;;10.24;100.00;101970.59;5026585;28;19920;-73
2022/01/01 06:47:33;;;;;;;;;;;;;;;10.19;100.00;101967.50;5025991;28;19921;-73
2022/01/01 06:49:59;;;;;;;;;;;;;;;10.24;100.00;101969.75;5025962;28;19921;-71
2022/01/01 06:52:24;;;;;;;;;;;;;;;10.23;100.00;101971.56;5025504;28;19939;-72
2022/01/01 06:54:50;;;;;;;;;;;;;;;10.27;100.00;101974.78;5015284;28;19983;-73
2022/01/01 06:57:16;;;;;;;;;;;;;;;10.25;100.00;101974.06;5015189;28;20282;-73
2022/01/01 06:59:41;;;;;;;;;;;;;;;10.27;100.00;101988.72;5009098;28;19921;-73
2022/01/01 07:02:07;;;;;;;;;;;;;;;10.19;100.00;101979.75;5022876;28;19913;-73
2022/01/01 07:04:32;;;;;;;;;;;;;;;10.21;100.00;101986.56;5023943;28;20014;-71
2022/01/01 07:06:58;;;;;;;;;;;;;;;10.24;100.00;101986.31;5004035;28;20395;-73
2022/01/01 07:09:23;;;;;;;;;;;;;;;10.23;100.00;101978.59;5014005;28;19928;-74
2022/01/01 07:11:50;;;;;;;;;;;;;;;10.27;100.00;101993.16;5018587;28;19919;-74
2022/01/01 07:14:16;;;;;;;;;;;;;;;10.19;100.00;101990.25;4999679;28;19924;-73
2022/01/01 07:16:42;;;;;;;;;;;;;;;10.29;100.00;101997.31;5004577;28;19917;-73
2022/01/01 07:19:07;;;;;;;;;;;;;;;10.24;100.00;101991.56;5021322;28;19919;-72
2022/01/01 07:21:33;;;;;;;;;;;;;;;10.27;100.00;101983.50;5033070;28;20328;-73
2022/01/01 07:23:58;;;;;;;;;;;;;;;10.31;100.00;101989.38;5034446;28;19913;-73
2022/01/01 07:26:24;;;;;;;;;;;;;;;10.36;100.00;101995.13;5029896;28;19921;-73
2022/01/01 07:28:49;;;;;;;;;;;;;;;10.36;100.00;101986.41;4999758;28;19921;-73
2022/01/01 07:31:17;;;;;;;;;;;;;;;10.36;100.00;101999.50;5004730;28;20394;-73
2022/01/01 07:33:42;;;;;;;;;;;;;;;10.27;100.00;101998.41;5017074;28;19923;-73
2022/01/01 07:36:08;;;;;;;;;;;;;;;10.28;100.00;102007.91;5014713;28;20354;-73
2022/01/01 07:38:33;;;;;;;;;;;;;;;10.28;100.00;102008.78;5016755;28;19928;-73
2022/01/01 07:40:59;;;;;;;;;;;;;;;10.23;100.00;102005.66;5034066;28;19919;-72
2022/01/01 07:43:27;;;;;;;;;;;;;;;10.27;100.00;102022.00;5014127;28;20020;-75
2022/01/01 07:45:53;;;;;;;;;;;;;;;10.32;100.00;102017.25;5007147;28;20366;-72
2022/01/01 07:48:18;;;;;;;;;;;;;;;10.30;100.00;102022.63;5016476;28;19917;-73
2022/01/01 07:50:44;;;;;;;;;;;;;;;10.21;100.00;102025.91;5017019;28;20000;-74
2022/01/01 07:53:10;;;;;;;;;;;;;;;10.19;100.00;102021.69;5032362;28;19916;-74
2022/01/01 07:55:36;;;;;;;;;;;;;;;10.32;100.00;102028.59;5013271;28;20671;-74
2022/01/01 07:58:02;;;;;;;;;;;;;;;10.25;100.00;102021.28;4999242;28;19963;-72
2022/01/01 08:00:27;;;;;;;;;;;;;;;10.26;100.00;102031.63;5028421;28;20278;-73
2022/01/01 08:02:53;;;;;;;;;;;;;;;10.28;100.00;102037.63;5014730;28;19952;-74
2022/01/01 08:05:19;;;;;;;;;;;;;;;10.33;100.00;102043.38;5030313;28;19917;-73
2022/01/01 08:07:45;;;;;;;;;;;;;;;10.36;100.00;102039.72;5009784;28;19914;-73
2022/01/01 08:10:11;;;;;;;;;;;;;;;10.39;100.00;102046.50;5020244;28;19929;-73
2022/01/01 08:12:37;;;;;;;;;;;;;;;10.41;100.00;102049.84;5023060;28;20011;-73
2022/01/01 08:15:04;;;;;;;;;;;;;;;10.41;100.00;102050.66;5013950;28;20015;-73
2022/01/01 08:17:29;;;;;;;;;;;;;;;10.44;100.00;102060.94;5006875;28;19925;-72
2022/01/01 08:19:55;;;;;;;;;;;;;;;10.38;100.00;102061.41;5036555;28;19913;-72
2022/01/01 08:22:20;;;;;;;;;;;;;;;10.35;100.00;102050.31;5023186;28;19928;-73
2022/01/01 08:24:46;;;;;;;;;;;;;;;10.40;100.00;102064.75;5037541;28;19956;-73
2022/01/01 08:27:11;;;;;;;;;;;;;;;10.33;100.00;102064.34;5025208;28;20048;-73
2022/01/01 08:29:37;;;;;;;;;;;;;;;10.26;100.00;102062.25;4997852;28;19920;-72
2022/01/01 08:32:03;;;;;;;;;;;;;;;10.41;100.00;102065.59;5007034;28;19917;-72
2022/01/01 08:34:28;;;;;;;;;;;;;;;10.46;100.00;102061.66;5001336;28;19913;-74
2022/01/01 08:36:54;;;;;;;;;;;;;;;10.52;100.00;102068.25;5005645;28;19923;-73
2022/01/01 08:39:20;;;;;;;;;;;;;;;10.50;100.00;102070.97;5029172;28;19920;-72
2022/01/01 08:41:46;;;;;;;;;;;;;;;10.48;100.00;102075.50;5008143;28;19917;-74
2022/01/01 08:44:11;;;;;;;;;;;;;;;10.35;100.00;102066.03;5011906;28;19917;-71
2022/01/01 08:46:37;;;;;;;;;;;;;;;10.39;100.00;102062.25;5018482;28;20023;-73
2022/01/01 08:49:03;;;;;;;;;;;;;;;10.41;100.00;102065.59;5016305;28;20033;-72
2022/01/01 08:51:29;;;;;;;;;;;;;;;10.42;100.00;102070.72;5020600;28;19917;-73
2022/01/01 08:53:55;;;;;;;;;;;;;;;10.38;100.00;102074.53;5040497;28;19920;-73
2022/01/01 08:56:20;;;;;;;;;;;;;;;10.45;100.00;102080.16;5014757;28;20012;-73
2022/01/01 08:58:46;;;;;;;;;;;;;;;10.45;100.00;102088.88;5009495;28;19952;-73
2022/01/01 09:01:12;;;;;;;;;;;;;;;10.42;100.00;102094.31;5012181;28;19928;-73
2022/01/01 09:03:38;;;;;;;;;;;;;;;10.33;100.00;102097.63;5011089;28;19917;-73
2022/01/01 09:06:05;;;;;;;;;;;;;;;10.26;100.00;102091.13;5016097;28;20370;-72
2022/01/01 09:08:31;;;;;;;;;;;;;;;10.27;100.00;102088.38;5013413;28;19925;-73
2022/01/01 09:10:57;;;;;;;;;;;;;;;10.27;100.00;102091.00;5005587;28;19972;-71
2022/01/01 09:13:23;;;;;;;;;;;;;;;10.22;100.00;102085.25;5012207;28;20700;-72
2022/01/01 09:15:48;;;;;;;;;;;;;;;10.34;100.00;102094.06;5005689;28;19962;-75
2022/01/01 09:18:14;;;;;;;;;;;;;;;10.51;100.00;102101.53;4986068;28;19960;-73
2022/01/01 09:20:40;;;;;;;;;;;;;;;10.42;100.00;102096.94;5002120;28;20525;-71
2022/01/01 09:23:06;;;;;;;;;;;;;;;10.51;100.00;102104.16;5027757;28;19917;-72
2022/01/01 09:25:31;;;;;;;;;;;;;;;10.47;100.00;102104.47;5010658;28;20367;-73
2022/01/01 09:27:57;;;;;;;;;;;;;;;10.61;100.00;102098.22;4994551;28;20359;-72
2022/01/01 09:30:23;;;;;;;;;;;;;;;10.70;100.00;102108.88;5004047;28;19925;-72
2022/01/01 09:32:49;;;;;;;;;;;;;;;10.73;100.00;102104.34;5019548;28;20311;-73
2022/01/01 09:35:16;;;;;;;;;;;;;;;10.69;100.00;102115.06;4987462;28;19963;-73
2022/01/01 09:37:42;;;;;;;;;;;;;;;10.67;100.00;102116.13;5022164;28;19959;-73
2022/01/01 09:40:08;;;;;;;;;;;;;;;10.71;100.00;102114.94;4978207;28;19913;-73
2022/01/01 09:42:33;;;;;;;;;;;;;;;10.58;100.00;102116.81;5037949;28;20331;-74
2022/01/01 09:44:59;;;;;;;;;;;;;;;10.50;100.00;102127.88;5022408;28;19921;-72
2022/01/01 09:47:25;;;;;;;;;;;;;;;10.57;100.00;102126.47;5017632;28;19959;-73
2022/01/01 09:49:51;;;;;;;;;;;;;;;10.57;100.00;102134.34;5005573;28;19925;-73
2022/01/01 09:52:17;;;;;;;;;;;;;;;10.67;100.00;102137.13;4998256;28;19951;-74
2022/01/01 09:54:42;;;;;;;;;;;;;;;10.70;100.00;102140.38;5031626;28;19967;-73
2022/01/01 09:57:10;;;;;;;;;;;;;;;10.66;100.00;102146.78;4997035;28;19944;-73
2022/01/01 09:59:39;;;;;;;;;;;;;;;10.61;100.00;102142.84;5007962;28;20008;-73
2022/01/01 10:02:05;;;;;;;;;;;;;;;10.62;100.00;102134.00;5015043;28;19917;-72
2022/01/01 10:04:41;;;;;;;;;;;;;;;10.59;100.00;102136.88;5018282;28;19967;-72
2022/01/01 10:07:07;;;;;;;;;;;;;;;10.57;100.00;102146.59;5024005;28;19917;-74
2022/01/01 10:09:33;;;;;;;;;;;;;;;10.65;100.00;102145.09;5024506;28;19921;-71
2022/01/01 10:11:59;;;;;;;;;;;;;;;10.63;100.00;102141.75;5025481;28;20012;-74
2022/01/01 10:14:37;;;;;;;;;;;;;;;10.73;100.00;102149.78;5006442;28;20011;-73
2022/01/01 10:17:16;;;;;;;;;;;;;;;10.67;100.00;102153.69;5021436;28;19917;-73
2022/01/01 10:19:45;;;;;;;;;;;;;;;10.64;100.00;102161.81;5018951;28;19923;-73
2022/01/01 10:22:13;;;;;;;;;;;;;;;10.64;100.00;102160.97;5018843;28;19928;-73
2022/01/01 10:27:43;;;;;;;;;;;;;;;10.81;100.00;102171.06;5005978;28;20287;-73
2022/01/01 10:30:16;;;;;;;;;;;;;;;10.72;100.00;102171.75;5021562;28;19959;-73
2022/01/01 10:32:58;;;;;;;;;;;;;;;10.75;100.00;102173.31;5020338;28;19968;-72
2022/01/01 10:35:23;;;;;;;;;;;;;;;10.78;100.00;102173.09;5014224;28;19918;-72
2022/01/01 10:37:49;;;;;;;;;;;;;;;10.73;100.00;102169.94;4999796;28;20494;-73
2022/01/01 10:40:23;;;;;;;;;;;;;;;10.69;100.00;102175.41;5011983;28;19917;-73
2022/01/01 10:42:49;;;;;;;;;;;;;;;10.81;100.00;102176.31;5016025;28;19925;-74
2022/01/01 10:45:27;;;;;;;;;;;;;;;10.82;100.00;102172.72;5023557;28;19916;-73
2022/01/01 10:48:04;;;;;;;;;;;;;;;10.80;100.00;102179.06;5005837;28;19961;-73
2022/01/01 10:50:34;;;;;;;;;;;;;;;10.74;100.00;102180.34;5032522;28;19928;-72
2022/01/01 10:53:13;;;;;;;;;;;;;;;10.83;100.00;102190.16;5019281;28;19917;-73
2022/01/01 10:55:42;;;;;;;;;;;;;;;10.70;100.00;102178.91;5020316;28;19916;-72
2022/01/01 10:58:08;;;;;;;;;;;;;;;10.80;100.00;102179.88;5019678;28;19913;-73
2022/01/01 11:00:39;;;;;;;;;;;;;;;10.76;100.00;102181.06;5011249;28;19920;-72
2022/01/01 11:03:08;;;;;;;;;;;;;;;10.76;100.00;102183.69;5009299;28;19917;-74
2022/01/01 11:05:38;;;;;;;;;;;;;;;10.69;100.00;102178.03;5037604;28;19987;-72
2022/01/01 11:08:05;;;;;;;;;;;;;;;10.68;100.00;102186.03;5003394;28;20007;-72
2022/01/01 11:10:31;;;;;;;;;;;;;;;10.68;100.00;102180.78;5031407;28;19956;-72
2022/01/01 11:12:56;;;;;;;;;;;;;;;10.62;100.00;102175.97;5027109;28;19968;-72
2022/01/01 11:15:22;;;;;;;;;;;;;;;10.67;100.00;102168.63;5034557;28;20001;-72
2022/01/01 11:17:48;;;;;;;;;;;;;;;10.66;100.00;102170.41;5029017;28;19916;-71
2022/01/01 11:20:14;;;;;;;;;;;;;;;10.61;100.00;102172.53;5018626;28;19995;-72
2022/01/01 11:22:41;;;;;;;;;;;;;;;10.58;100.00;102167.50;5028962;28;19952;-71
2022/01/01 11:25:07;;;;;;;;;;;;;;;10.56;100.00;102156.28;5026594;28;19963;-73
2022/01/01 11:27:32;;;;;;;;;;;;;;;10.61;100.00;102150.72;5011912;28;19917;-72
2022/01/01 11:29:59;;;;;;;;;;;;;;;10.81;100.00;102151.84;5019108;28;20436;-74
2022/01/01 11:32:29;;;;;;;;;;;;;;;10.96;100.00;102149.88;5012856;28;19917;-73
2022/01/01 11:34:55;;;;;;;;;;;;;;;11.08;100.00;102146.34;5023385;28;19960;-72
2022/01/01 11:37:23;;;;;;;;;;;;;;;11.04;100.00;102150.16;5020891;28;20579;-73
2022/01/01 11:39:56;;;;;;;;;;;;;;;11.09;100.00;102143.59;4996714;28;19913;-73
2022/01/01 11:42:22;;;;;;;;;;;;;;;11.01;100.00;102143.31;5023777;28;20803;-74
2022/01/01 11:44:55;;;;;;;;;;;;;;;11.02;100.00;102138.91;5017541;28;19924;-72
2022/01/01 11:47:24;;;;;;;;;;;;;;;11.01;100.00;102143.31;5014059;28;19920;-72
2022/01/01 11:49:50;;;;;;;;;;;;;;;11.08;100.00;102141.09;5015753;28;19921;-73
2022/01/01 11:52:33;;;;;;;;;;;;;;;11.01;100.00;102139.88;5021711;28;19913;-73
2022/01/01 11:55:00;;;;;;;;;;;;;;;10.97;100.00;102126.13;5014690;28;20294;-72
2022/01/01 11:57:26;;;;;;;;;;;;;;;10.92;100.00;102120.38;5017515;28;20322;-72
2022/01/01 11:59:55;;;;;;;;;;;;;;;10.79;100.00;102106.50;5003137;28;19928;-72
2022/01/01 12:02:20;;;;;;;;;;;;;;;10.80;100.00;102102.94;4998670;28;20375;-73
2022/01/01 12:04:46;;;;;;;;;;;;;;;10.88;100.00;102106.66;5005589;28;19920;-74
2022/01/01 12:07:18;;;;;;;;;;;;;;;10.91;100.00;102100.34;5009173;28;19922;-72
2022/01/01 12:10:09;;;;;;;;;;;;;;;10.81;100.00;102104.59;5013813;28;19925;-73
2022/01/01 12:12:39;;;;;;;;;;;;;;;10.80;100.00;102095.91;5027003;28;19966;-71
2022/01/01 12:15:06;;;;;;;;;;;;;;;10.88;100.00;102103.19;5033163;28;19953;-72
2022/01/01 12:17:44;;;;;;;;;;;;;;;10.89;100.00;102097.84;5014599;28;20653;-71
2022/01/01 12:20:13;;;;;;;;;;;;;;;10.86;100.00;102092.81;5030105;28;19971;-71
2022/01/01 12:22:39;;;;;;;;;;;;;;;10.84;100.00;102086.84;5025245;28;19917;-74
2022/01/01 12:25:06;;;;;;;;;;;;;;;10.87;100.00;102088.41;5016380;28;19913;-73
2022/01/01 12:27:39;;;;;;;;;;;;;;;10.94;100.00;102083.53;5004720;28;20431;-72
2022/01/01 12:30:05;;;;;;;;;;;;;;;10.91;100.00;102080.19;5020755;28;19960;-73
2022/01/01 12:32:46;;;;;;;;;;;;;;;10.87;100.00;102078.75;5010612;28;19975;-72
2022/01/01 12:35:15;;;;;;;;;;;;;;;10.85;100.00;102075.41;5020346;28;19921;-75